createdAt,value
2018-07-05T00:01:26.701Z,15.78
2018-07-05T00:04:12.513Z,15.84
2018-07-05T00:06:58.366Z,15.96
2018-07-05T00:09:44.192Z,15.97
2018-07-05T00:12:29.940Z,15.79
2018-07-05T00:15:15.849Z,15.85
2018-07-05T00:17:55.655Z,15.81
2018-07-05T00:20:41.196Z,15.78
2018-07-05T00:23:27.042Z,15.77
2018-07-05T00:26:12.773Z,15.51
2018-07-05T00:28:58.338Z,15.49
2018-07-05T00:31:38.058Z,15.55
2018-07-05T00:34:23.756Z,15.58
2018-07-05T00:37:09.544Z,15.39
2018-07-05T00:39:55.230Z,15.33
2018-07-05T00:42:40.784Z,15.47
2018-07-05T00:45:26.699Z,15.47
2018-07-05T00:48:12.460Z,15.48
2018-07-05T00:50:58.055Z,15.38
2018-07-05T00:53:43.585Z,15.27
2018-07-05T00:56:29.542Z,15.42
2018-07-05T00:59:15.203Z,15.43
2018-07-05T01:02:00.703Z,15.41
2018-07-05T01:04:46.484Z,15.51
2018-07-05T01:07:32.160Z,15.24
2018-07-05T01:10:17.968Z,15.36
2018-07-05T01:13:03.650Z,15.32
2018-07-05T01:15:49.320Z,15.50
2018-07-05T01:18:35.254Z,15.28
2018-07-05T01:21:15.120Z,15.37
2018-07-05T01:24:00.793Z,15.40
2018-07-05T01:26:46.416Z,15.53
2018-07-05T01:29:26.392Z,15.49
2018-07-05T01:32:12.220Z,15.38
2018-07-05T01:34:52.101Z,15.31
2018-07-05T01:37:37.891Z,15.34
2018-07-05T01:40:17.818Z,15.21
2018-07-05T01:43:03.467Z,15.33
2018-07-05T01:45:55.042Z,15.27
2018-07-05T01:48:40.892Z,15.20
2018-07-05T01:51:26.760Z,15.20
2018-07-05T01:54:12.515Z,15.20
2018-07-05T01:56:58.351Z,15.23
2018-07-05T01:59:43.818Z,15.27
2018-07-05T02:02:29.675Z,15.18
2018-07-05T02:05:15.537Z,15.25
2018-07-05T02:07:55.412Z,15.28
2018-07-05T02:10:42.859Z,15.23
2018-07-05T02:13:29.919Z,15.12
2018-07-05T02:16:09.898Z,15.18
2018-07-05T02:18:55.887Z,15.22
2018-07-05T02:21:41.766Z,15.38
2018-07-05T02:24:27.693Z,15.38
2018-07-05T02:27:15.032Z,15.44
2018-07-05T02:30:00.839Z,15.39
2018-07-05T02:32:46.640Z,15.34
2018-07-05T02:35:32.347Z,15.36
2018-07-05T02:38:22.021Z,15.22
2018-07-05T02:41:02.554Z,15.34
2018-07-05T02:43:48.388Z,15.59
2018-07-05T02:46:29.203Z,15.44
2018-07-05T02:49:15.053Z,15.35
2018-07-05T02:52:00.544Z,15.28
2018-07-05T02:54:46.212Z,14.81
2018-07-05T02:57:32.196Z,15.17
2018-07-05T03:00:17.779Z,14.81
2018-07-05T03:03:03.357Z,15.02
2018-07-05T03:05:43.081Z,14.59
2018-07-05T03:08:32.698Z,14.84
2018-07-05T03:11:18.380Z,14.99
2018-07-05T03:14:03.985Z,15.02
2018-07-05T03:16:49.688Z,14.79
2018-07-05T03:19:35.525Z,14.57
2018-07-05T03:22:15.748Z,14.94
2018-07-05T03:25:01.481Z,14.88
2018-07-05T03:27:47.142Z,14.91
2018-07-05T03:30:33.011Z,14.85
2018-07-05T03:33:18.558Z,14.92
2018-07-05T03:36:04.311Z,14.89
2018-07-05T03:38:44.026Z,15.03
2018-07-05T03:41:29.883Z,14.72
2018-07-05T03:44:15.509Z,14.92
2018-07-05T03:47:01.444Z,15.01
2018-07-05T03:49:47.247Z,15.02
2018-07-05T03:52:33.024Z,15.08
2018-07-05T03:55:18.844Z,15.71
2018-07-05T03:58:04.539Z,15.93
2018-07-05T04:00:50.171Z,16.15
2018-07-05T04:03:35.828Z,15.69
2018-07-05T04:06:21.511Z,15.60
2018-07-05T04:09:07.291Z,15.36
2018-07-05T04:11:52.996Z,15.33
2018-07-05T04:14:38.759Z,15.00
2018-07-05T04:17:24.467Z,15.16
2018-07-05T04:20:04.425Z,15.15
2018-07-05T04:22:50.146Z,15.17
2018-07-05T04:25:30.095Z,15.18
2018-07-05T04:28:15.641Z,16.23
2018-07-05T04:31:01.482Z,16.91
2018-07-05T04:33:47.353Z,17.02
2018-07-05T04:36:32.979Z,16.80
2018-07-05T04:39:18.591Z,17.26
2018-07-05T04:42:04.215Z,17.65
2018-07-05T04:44:50.114Z,17.72
2018-07-05T04:47:35.590Z,17.24
2018-07-05T04:50:21.299Z,16.66
2018-07-05T04:53:07.112Z,17.31
2018-07-05T04:55:52.938Z,17.86
2018-07-05T04:58:38.603Z,18.03
2018-07-05T05:01:24.311Z,18.52
2018-07-05T05:04:09.987Z,18.42
2018-07-05T05:06:49.827Z,18.78
2018-07-05T05:09:35.387Z,19.13
2018-07-05T05:12:20.928Z,18.98
2018-07-05T05:15:06.753Z,19.46
2018-07-05T05:17:52.535Z,19.45
2018-07-05T05:20:38.289Z,19.83
2018-07-05T05:23:24.028Z,20.13
2018-07-05T05:26:09.629Z,20.04
2018-07-05T05:28:49.341Z,19.95
2018-07-05T05:31:35.143Z,19.48
2018-07-05T05:34:20.703Z,19.69
2018-07-05T05:37:06.547Z,20.11
2018-07-05T05:39:46.360Z,20.80
2018-07-05T05:42:31.971Z,20.50
2018-07-05T05:45:17.631Z,20.88
2018-07-05T05:48:03.219Z,20.92
2018-07-05T05:50:48.840Z,20.74
2018-07-05T05:53:34.847Z,20.80
2018-07-05T05:56:20.551Z,20.44
2018-07-05T05:59:06.499Z,20.65
2018-07-05T06:01:46.627Z,21.09
2018-07-05T06:04:32.290Z,20.97
2018-07-05T06:07:18.036Z,21.08
2018-07-05T06:09:57.804Z,20.37
2018-07-05T06:12:43.628Z,20.46
2018-07-05T06:15:29.617Z,20.89
2018-07-05T06:18:15.496Z,20.70
2018-07-05T06:21:01.257Z,20.60
2018-07-05T06:23:46.880Z,20.05
2018-07-05T06:26:32.674Z,19.41
2018-07-05T06:29:12.610Z,19.47
2018-07-05T06:31:58.399Z,19.71
2018-07-05T06:34:44.085Z,20.02
2018-07-05T06:37:29.962Z,19.98
2018-07-05T06:40:15.988Z,20.10
2018-07-05T06:43:01.508Z,19.63
2018-07-05T06:45:53.281Z,19.63
2018-07-05T06:48:33.137Z,19.66
2018-07-05T06:51:19.031Z,20.46
2018-07-05T06:54:04.723Z,20.64
2018-07-05T06:56:50.674Z,20.59
2018-07-05T06:59:36.619Z,20.25
2018-07-05T07:02:22.283Z,21.31
2018-07-05T07:05:07.949Z,21.38
2018-07-05T07:07:53.633Z,20.97
2018-07-05T07:10:39.315Z,21.50
2018-07-05T07:13:25.142Z,21.19
2018-07-05T07:16:10.909Z,21.25
2018-07-05T07:18:56.765Z,21.41
2018-07-05T07:21:42.407Z,21.86
2018-07-05T07:24:27.935Z,21.40
2018-07-05T07:27:13.788Z,21.49
2018-07-05T07:29:59.430Z,21.14
2018-07-05T07:32:45.091Z,22.23
2018-07-05T07:35:30.780Z,22.50
2018-07-05T07:38:16.587Z,22.88
2018-07-05T07:41:02.391Z,22.36
2018-07-05T07:43:29.373Z,22.70
2018-07-05T07:45:56.367Z,23.01
2018-07-05T07:48:23.283Z,23.24
2018-07-05T07:50:50.677Z,22.08
2018-07-05T07:53:17.592Z,21.90
2018-07-05T07:55:44.608Z,22.46
2018-07-05T07:58:11.590Z,22.53
2018-07-05T08:00:38.556Z,22.82
2018-07-05T08:03:05.476Z,23.02
2018-07-05T08:05:32.877Z,22.64
2018-07-05T08:08:00.323Z,22.53
2018-07-05T08:10:27.307Z,22.93
2018-07-05T08:12:54.271Z,23.46
2018-07-05T08:15:21.310Z,22.64
2018-07-05T08:17:48.235Z,23.48
2018-07-05T08:20:15.283Z,23.79
2018-07-05T08:22:42.208Z,23.66
2018-07-05T08:25:09.124Z,22.16
2018-07-05T08:27:36.091Z,22.67
2018-07-05T08:30:03.007Z,22.99
2018-07-05T08:32:30.040Z,23.61
2018-07-05T08:34:56.984Z,22.80
2018-07-05T08:37:23.946Z,22.42
2018-07-05T08:39:50.871Z,22.63
2018-07-05T08:42:17.826Z,22.57
2018-07-05T08:44:44.816Z,22.59
2018-07-05T08:47:11.784Z,22.30
2018-07-05T08:49:38.705Z,22.42
2018-07-05T08:52:05.665Z,23.33
2018-07-05T08:54:32.620Z,23.26
2018-07-05T08:56:59.687Z,23.53
2018-07-05T08:59:26.613Z,24.01
2018-07-05T09:01:53.570Z,24.26
2018-07-05T09:04:20.488Z,24.61
2018-07-05T09:06:47.480Z,24.40
2018-07-05T09:09:14.464Z,23.82
2018-07-05T09:11:41.774Z,24.56
2018-07-05T09:14:08.748Z,24.74
2018-07-05T09:16:35.701Z,24.63
2018-07-05T09:19:03.407Z,24.43
2018-07-05T09:21:30.372Z,24.77
2018-07-05T09:23:58.307Z,24.25
2018-07-05T09:26:25.605Z,24.21
2018-07-05T09:28:52.539Z,23.25
2018-07-05T09:31:19.639Z,23.37
2018-07-05T09:33:46.963Z,23.46
2018-07-05T09:36:13.880Z,23.89
2018-07-05T09:38:40.788Z,24.19
2018-07-05T09:41:09.006Z,23.85
2018-07-05T09:43:35.916Z,23.27
2018-07-05T09:46:09.119Z,23.52
2018-07-05T09:48:36.408Z,24.02
2018-07-05T09:51:03.357Z,24.03
2018-07-05T09:53:30.267Z,23.88
2018-07-05T09:55:57.348Z,24.16
2018-07-05T09:58:24.755Z,23.66
2018-07-05T10:00:52.279Z,23.42
2018-07-05T10:03:20.868Z,23.13
2018-07-05T10:05:48.430Z,22.82
2018-07-05T10:08:16.497Z,23.23
2018-07-05T10:10:44.052Z,22.83
2018-07-05T10:13:11.484Z,23.62
2018-07-05T10:15:38.938Z,23.50
2018-07-05T10:18:06.000Z,23.01
2018-07-05T10:20:33.298Z,23.61
2018-07-05T10:23:00.288Z,24.12
2018-07-05T10:25:27.575Z,23.61
2018-07-05T10:27:54.492Z,23.00
2018-07-05T10:30:40.122Z,22.88
2018-07-05T10:33:25.790Z,22.89
2018-07-05T10:35:53.044Z,22.99
2018-07-05T10:38:19.964Z,22.99
2018-07-05T10:41:05.907Z,22.60
2018-07-05T10:43:51.733Z,22.30
2018-07-05T10:46:37.858Z,23.01
2018-07-05T10:49:23.364Z,22.97
2018-07-05T10:52:09.141Z,23.02
2018-07-05T10:54:54.799Z,23.14
2018-07-05T10:57:40.719Z,22.63
2018-07-05T11:00:26.454Z,22.97
2018-07-05T11:03:12.393Z,22.53
2018-07-05T11:05:58.076Z,22.60
2018-07-05T11:08:44.068Z,22.74
2018-07-05T11:11:29.709Z,22.86
2018-07-05T11:14:15.888Z,23.57
2018-07-05T11:17:01.679Z,23.83
2018-07-05T11:19:41.578Z,23.31
2018-07-05T11:22:27.285Z,23.84
2018-07-05T11:25:13.241Z,22.93
2018-07-05T11:27:59.071Z,22.86
2018-07-05T11:30:45.048Z,22.75
2018-07-05T11:33:30.739Z,23.01
2018-07-05T11:36:16.690Z,22.99
2018-07-05T11:38:56.726Z,23.16
2018-07-05T11:41:42.573Z,22.94
2018-07-05T11:44:28.223Z,22.90
2018-07-05T11:47:14.043Z,22.47
2018-07-05T11:49:54.000Z,22.67
2018-07-05T11:52:39.820Z,22.32
2018-07-05T11:55:19.582Z,22.46
2018-07-05T11:57:59.954Z,22.03
2018-07-05T12:00:45.730Z,22.42
2018-07-05T12:03:31.783Z,22.75
2018-07-05T12:06:17.543Z,22.50
2018-07-05T12:09:04.543Z,22.70
2018-07-05T12:11:50.451Z,22.42
2018-07-05T12:14:36.363Z,22.76
2018-07-05T12:17:22.067Z,22.77
2018-07-05T12:20:07.846Z,22.18
2018-07-05T12:22:53.460Z,22.14
2018-07-05T12:25:33.574Z,22.46
2018-07-05T12:28:19.217Z,22.27
2018-07-05T12:31:05.015Z,22.23
2018-07-05T12:33:50.989Z,22.45
2018-07-05T12:36:37.112Z,22.28
2018-07-05T12:39:22.950Z,22.35
2018-07-05T12:42:09.127Z,22.42
2018-07-05T12:44:54.794Z,23.09
2018-07-05T12:47:40.678Z,23.03
2018-07-05T12:50:26.198Z,22.84
2018-07-05T12:53:12.279Z,22.44
2018-07-05T12:55:57.963Z,22.26
2018-07-05T12:58:44.100Z,21.70
2018-07-05T13:01:24.134Z,21.61
2018-07-05T13:04:10.062Z,22.12
2018-07-05T13:06:55.622Z,21.92
2018-07-05T13:09:41.540Z,22.19
2018-07-05T13:12:27.365Z,22.04
2018-07-05T13:15:13.567Z,21.98
2018-07-05T13:17:59.342Z,22.00
2018-07-05T13:20:45.018Z,22.18
2018-07-05T13:23:30.799Z,22.34
2018-07-05T13:26:16.481Z,22.56
2018-07-05T13:29:02.303Z,22.00
2018-07-05T13:31:48.504Z,22.40
2018-07-05T13:34:34.297Z,22.77
2018-07-05T13:37:20.292Z,22.53
2018-07-05T13:40:06.067Z,21.92
2018-07-05T13:42:51.991Z,22.28
2018-07-05T13:45:43.605Z,22.54
2018-07-05T13:48:29.747Z,22.08
2018-07-05T13:51:15.482Z,22.16
2018-07-05T13:54:01.619Z,22.70
2018-07-05T13:56:47.370Z,22.67
2018-07-05T13:59:33.551Z,22.27
2018-07-05T14:02:19.358Z,22.47
2018-07-05T14:05:05.236Z,22.18
2018-07-05T14:07:50.969Z,22.29
2018-07-05T14:10:31.018Z,22.15
2018-07-05T14:13:16.767Z,21.87
2018-07-05T14:15:56.679Z,22.31
2018-07-05T14:18:42.248Z,23.02
2018-07-05T14:21:23.479Z,23.11
2018-07-05T14:24:09.288Z,22.73
2018-07-05T14:26:55.254Z,22.55
2018-07-05T14:29:40.979Z,22.43
2018-07-05T14:32:26.940Z,22.41
2018-07-05T14:35:12.836Z,22.56
2018-07-05T14:37:59.023Z,22.55
2018-07-05T14:40:44.838Z,22.09
2018-07-05T14:43:30.416Z,22.21
2018-07-05T14:46:16.368Z,22.13
2018-07-05T14:49:02.390Z,22.40
2018-07-05T14:51:48.161Z,22.27
2018-07-05T14:54:34.096Z,21.95
2018-07-05T14:57:20.098Z,22.30
2018-07-05T14:59:59.986Z,21.95
2018-07-05T15:02:45.762Z,22.30
2018-07-05T15:05:31.787Z,21.86
2018-07-05T15:08:17.586Z,22.19
2018-07-05T15:11:03.615Z,22.33
2018-07-05T15:13:49.137Z,21.79
2018-07-05T15:16:35.145Z,22.14
2018-07-05T15:19:15.120Z,22.55
2018-07-05T15:22:01.110Z,22.61
2018-07-05T15:24:47.072Z,22.75
2018-07-05T15:27:32.920Z,22.83
2018-07-05T15:30:18.991Z,23.42
2018-07-05T15:33:04.939Z,22.72
2018-07-05T15:35:50.503Z,23.42
2018-07-05T15:38:36.324Z,22.99
2018-07-05T15:41:16.226Z,22.99
2018-07-05T15:43:56.651Z,22.82
2018-07-05T15:46:42.385Z,22.48
2018-07-05T15:49:28.536Z,22.45
2018-07-05T15:52:14.119Z,22.59
2018-07-05T15:54:59.875Z,22.49
2018-07-05T15:57:45.435Z,21.97
2018-07-05T16:00:25.442Z,22.47
2018-07-05T16:03:11.158Z,22.91
2018-07-05T16:05:57.023Z,22.38
2018-07-05T16:08:42.730Z,21.95
2018-07-05T16:11:28.912Z,22.33
2018-07-05T16:14:14.582Z,22.36
2018-07-05T16:17:00.377Z,22.10
2018-07-05T16:19:46.065Z,22.13
2018-07-05T16:22:31.784Z,22.82
2018-07-05T16:25:18.260Z,22.91
2018-07-05T16:28:04.147Z,23.00
2018-07-05T16:30:49.784Z,22.98
2018-07-05T16:33:35.611Z,22.94
2018-07-05T16:36:15.311Z,22.52
2018-07-05T16:39:01.477Z,22.72
2018-07-05T16:41:47.209Z,22.37
2018-07-05T16:44:33.136Z,22.12
2018-07-05T16:47:12.978Z,22.04
2018-07-05T16:49:58.982Z,22.10
2018-07-05T16:52:44.766Z,22.50
2018-07-05T16:55:30.722Z,22.59
2018-07-05T16:58:16.639Z,22.66
2018-07-05T17:01:02.468Z,22.10
2018-07-05T17:03:48.268Z,22.15
2018-07-05T17:06:28.467Z,21.94
2018-07-05T17:09:08.306Z,21.57
2018-07-05T17:11:54.974Z,21.43
2018-07-05T17:14:40.689Z,21.31
2018-07-05T17:17:26.534Z,21.20
2018-07-05T17:20:12.275Z,21.15
2018-07-05T17:22:58.097Z,21.06
2018-07-05T17:25:45.330Z,21.01
2018-07-05T17:28:31.013Z,20.82
2018-07-05T17:31:16.870Z,20.74
2018-07-05T17:34:02.595Z,21.03
2018-07-05T17:36:48.422Z,20.68
2018-07-05T17:39:33.972Z,20.81
2018-07-05T17:42:19.880Z,20.69
2018-07-05T17:44:59.732Z,20.49
2018-07-05T17:47:45.875Z,20.53
2018-07-05T17:50:31.575Z,20.36
2018-07-05T17:53:17.771Z,20.39
2018-07-05T17:56:03.459Z,20.30
2018-07-05T17:58:49.301Z,20.31
2018-07-05T18:01:35.124Z,19.95
2018-07-05T18:04:15.175Z,20.11
2018-07-05T18:07:01.092Z,19.80
2018-07-05T18:09:46.857Z,19.78
2018-07-05T18:12:32.496Z,19.79
2018-07-05T18:15:18.446Z,19.60
2018-07-05T18:18:04.131Z,19.60
2018-07-05T18:20:49.725Z,19.49
2018-07-05T18:23:35.267Z,19.24
2018-07-05T18:26:21.500Z,19.31
2018-07-05T18:29:07.145Z,19.18
2018-07-05T18:31:52.837Z,19.19
2018-07-05T18:34:38.458Z,19.11
2018-07-05T18:37:24.555Z,19.02
2018-07-05T18:40:10.139Z,18.81
2018-07-05T18:42:55.852Z,18.71
2018-07-05T18:45:47.787Z,18.64
2018-07-05T18:48:33.847Z,18.51
2018-07-05T18:51:19.468Z,18.44
2018-07-05T18:53:59.620Z,18.37
2018-07-05T18:56:45.405Z,18.41
2018-07-05T18:59:27.874Z,18.25
2018-07-05T19:02:13.412Z,18.02
2018-07-05T19:04:53.113Z,17.88
2018-07-05T19:07:38.861Z,17.87
2018-07-05T19:10:24.704Z,17.70
2018-07-05T19:13:10.539Z,17.67
2018-07-05T19:15:56.570Z,17.74
2018-07-05T19:18:42.233Z,17.54
2018-07-05T19:21:28.152Z,17.62
2018-07-05T19:24:13.920Z,17.44
2018-07-05T19:26:59.647Z,17.52
2018-07-05T19:29:45.315Z,17.42
2018-07-05T19:32:31.520Z,17.32
2018-07-05T19:35:17.403Z,17.36
2018-07-05T19:38:03.364Z,17.34
2018-07-05T19:40:49.188Z,17.46
2018-07-05T19:43:36.323Z,17.61
2018-07-05T19:46:21.968Z,17.68
2018-07-05T19:49:08.182Z,17.65
2018-07-05T19:51:53.884Z,17.69
2018-07-05T19:54:39.881Z,17.65
2018-07-05T19:57:25.498Z,17.69
2018-07-05T20:00:05.804Z,17.66
2018-07-05T20:02:51.382Z,17.68
2018-07-05T20:05:31.542Z,17.58
2018-07-05T20:08:17.175Z,17.75
2018-07-05T20:11:00.371Z,17.75
2018-07-05T20:13:46.251Z,17.80
2018-07-05T20:16:32.344Z,17.69
2018-07-05T20:19:18.120Z,17.54
2018-07-05T20:22:06.880Z,17.54
2018-07-05T20:24:52.503Z,17.69
2018-07-05T20:27:38.777Z,17.64
2018-07-05T20:30:24.403Z,17.48
2018-07-05T20:33:10.455Z,17.38
2018-07-05T20:35:56.557Z,17.37
2018-07-05T20:38:42.950Z,17.28
2018-07-05T20:41:28.609Z,17.24
2018-07-05T20:44:14.388Z,17.31
2018-07-05T20:47:00.017Z,17.40
2018-07-05T20:49:46.205Z,17.35
2018-07-05T20:52:31.772Z,17.40
2018-07-05T20:55:17.767Z,17.20
2018-07-05T20:58:03.468Z,17.27
2018-07-05T21:00:49.645Z,17.30
2018-07-05T21:03:35.015Z,17.27
2018-07-05T21:06:20.663Z,17.34
2018-07-05T21:09:00.449Z,17.22
2018-07-05T21:11:46.472Z,17.32
2018-07-05T21:14:32.133Z,17.25
2018-07-05T21:17:18.159Z,17.00
2018-07-05T21:19:58.021Z,17.19
2018-07-05T21:22:44.302Z,17.27
2018-07-05T21:25:30.021Z,17.13
2018-07-05T21:28:10.010Z,17.17
2018-07-05T21:30:55.602Z,17.30
2018-07-05T21:33:41.725Z,17.20
2018-07-05T21:36:27.480Z,17.05
2018-07-05T21:39:13.499Z,17.23
2018-07-05T21:41:59.559Z,17.16
2018-07-05T21:44:45.680Z,17.17
2018-07-05T21:47:31.642Z,17.28
2018-07-05T21:50:17.517Z,17.18
2018-07-05T21:52:57.445Z,17.35
2018-07-05T21:55:43.514Z,17.20
2018-07-05T21:58:29.117Z,17.34
2018-07-05T22:01:15.095Z,17.38
2018-07-05T22:04:00.669Z,17.45
2018-07-05T22:06:46.555Z,17.39
2018-07-05T22:09:32.037Z,17.30
2018-07-05T22:12:18.161Z,17.31
2018-07-05T22:15:03.924Z,17.30
2018-07-05T22:17:49.931Z,17.42
2018-07-05T22:20:41.100Z,17.32
2018-07-05T22:23:32.871Z,17.43
2018-07-05T22:26:24.249Z,17.46
2018-07-05T22:29:15.915Z,17.30
2018-07-05T22:32:01.530Z,17.39
2018-07-05T22:34:47.499Z,17.37
2018-07-05T22:37:33.057Z,17.39
2018-07-05T22:40:13.129Z,17.41
2018-07-05T22:42:58.720Z,17.46
2018-07-05T22:45:44.911Z,17.34
2018-07-05T22:48:30.603Z,17.19
2018-07-05T22:51:16.464Z,17.14
2018-07-05T22:54:02.245Z,17.03
2018-07-05T22:56:48.990Z,17.09
2018-07-05T22:59:34.648Z,16.93
2018-07-05T23:02:14.659Z,16.93
2018-07-05T23:04:54.516Z,16.79
2018-07-05T23:07:34.631Z,16.79
2018-07-05T23:10:20.347Z,16.73
2018-07-05T23:13:06.620Z,16.71
2018-07-05T23:15:52.327Z,16.59
2018-07-05T23:18:38.403Z,16.49
2018-07-05T23:21:24.065Z,16.27
2018-07-05T23:24:09.972Z,16.44
2018-07-05T23:26:55.728Z,16.43
2018-07-05T23:29:41.545Z,16.46
2018-07-05T23:32:27.181Z,16.43
2018-07-05T23:35:13.065Z,16.31
2018-07-05T23:37:52.797Z,16.45
2018-07-05T23:40:38.773Z,16.38
2018-07-05T23:43:24.391Z,16.36
2018-07-05T23:46:10.296Z,16.24
2018-07-05T23:48:56.045Z,16.24
2018-07-05T23:51:41.756Z,16.22
2018-07-05T23:54:21.617Z,16.17
2018-07-05T23:57:07.555Z,16.19
2018-07-05T23:59:53.371Z,16.26
